Flight Track Log - Related Links

Times and Time Zones

All times are in EDT time to prevent confusion due to time zone crossing. See the ASQ5991 flight status page for this flight to view local times or setup timezone preferences in your user account.

Time Position Orientation Groundspeed Altitude Reporting Facility
EDT Latitude Longitude Course Direction KTS MPH feet Rate Location/Type
Thu 02:29:54 PM 36.2056 -94.3875 60° Northeast 223 257 7,100  Level Kansas City Center
Thu 02:30:00 PM 36.5321 -94.3531 351° North  Level FlightAware Approximate
Thu 02:30:58 PM 36.2736 -94.4019 350° North 238 274 9,000  Level Kansas City Center
Thu 02:31:00 PM 36.6203 -94.3735 345° North  Level FlightAware Approximate
Thu 02:31:58 PM 36.3539 -94.4075 357° North 265 305 10,800  Level Kansas City Center
Thu 02:32:00 PM 36.7084 -94.3950 351° North  Level FlightAware Approximate
Thu 02:33:00 PM 36.7972 -94.4128 351° North  Level FlightAware Approximate
Thu 02:33:02 PM 36.4492 -94.4117 358° North 298 343 12,000  Level Kansas City Center
Thu 02:34:00 PM 36.8577 -94.3806 60° Northeast  Level FlightAware Approximate
Thu 02:34:02 PM 36.5758 -94.4192 357° North 346 398 14,000  Level Kansas City Center
Thu 02:35:00 PM 36.9027 -94.2833 60° Northeast  Level FlightAware Approximate
Thu 02:35:06 PM 36.6808 -94.4250 357° North 366 421 15,700  Level Kansas City Center
Thu 02:36:07 PM 36.7892 -94.4319 357° North 378 435 17,400 1,440 Climbing Kansas City Center
Thu 02:37:11 PM 36.8739 -94.3633 33° Northeast 375 432 18,700 1,344 Climbing Kansas City Center
Thu 02:38:12 PM 36.9275 -94.2492 60° Northeast 378 435 20,200 1,403 Climbing Kansas City Center
Thu 02:39:15 PM 36.9831 -94.1356 59° Northeast 381 438 21,600 1,548 Climbing Kansas City Center
Thu 02:40:16 PM 37.0475 -93.9972 60° Northeast 382 440 23,400 1,623 Climbing Kansas City Center
Thu 02:41:17 PM 37.1006 -93.8814 60° Northeast 383 441 24,900 1,392 Climbing Kansas City Center
Thu 02:42:21 PM 37.1519 -93.7739 59° Northeast 379 436 26,300 1,355 Climbing Kansas City Center
Thu 02:43:21 PM 37.2067 -93.6581 59° Northeast 383 441 27,700 1,512 Climbing Kansas City Center
Thu 02:44:24 PM 37.2589 -93.5431 60° Northeast 381 438 29,400 1,714 Climbing Kansas City Center
Thu 02:45:27 PM 37.3228 -93.4058 60° Northeast 380 437 31,300 1,403 Climbing Kansas City Center
Thu 02:46:28 PM 37.3900 -93.3017 51° Northeast 389 448 32,300 823 Climbing Kansas City Center
Thu 02:47:31 PM 37.4783 -93.2203 36° Northeast 393 452 33,000 339 Climbing Kansas City Center
Thu 02:48:32 PM 37.5739 -93.1314 36° Northeast 414 476 33,000  Level Kansas City Center
Thu 02:49:33 PM 37.6786 -93.0358 36° Northeast 452 520 33,000  Level Kansas City Center
Thu 02:50:37 PM 37.7828 -92.9375 37° Northeast 465 535 33,000  Level Kansas City Center
Thu 02:51:39 PM 37.8881 -92.8406 36° Northeast 465 535 33,000  Level Kansas City Center
Thu 02:52:39 PM 38.0061 -92.7292 37° Northeast 459 528 33,000  Level Kansas City Center
Thu 02:53:43 PM 38.1092 -92.6317 37° Northeast 461 531 33,000  Level Kansas City Center
Thu 02:54:44 PM 38.2242 -92.5239 36° Northeast 469 540 33,000  Level Kansas City Center
Thu 02:55:48 PM 38.3314 -92.4222 37° Northeast 474 545 33,000  Level Kansas City Center
Thu 02:56:49 PM 38.4372 -92.3197 37° Northeast 473 544 33,000  Level Kansas City Center
Thu 02:57:50 PM 38.5433 -92.2197 36° Northeast 472 543 33,000  Level Kansas City Center
Thu 02:58:54 PM 38.6469 -92.1178 38° Northeast 469 540 33,000  Level Kansas City Center
Thu 02:59:54 PM 38.7525 -92.0175 37° Northeast 469 540 33,000  Level Kansas City Center
Thu 03:00:58 PM 38.8572 -91.9158 37° Northeast 471 542 33,000  Level Kansas City Center
Thu 03:01:59 PM 38.9831 -91.7947 37° Northeast 470 541 33,000  Level Kansas City Center
Thu 03:03:02 PM 39.0878 -91.6933 37° Northeast 471 542 33,000  Level Kansas City Center
Thu 03:04:02 PM 39.1789 -91.6036 37° Northeast 470 541 33,000  Level Kansas City Center
Thu 03:05:07 PM 39.3075 -91.4781 37° Northeast 477 549 33,000  Level Kansas City Center
Thu 03:06:07 PM 39.4128 -91.3747 37° Northeast 478 550 33,000  Level Kansas City Center
Thu 03:07:08 PM 39.5181 -91.2708 37° Northeast 476 548 33,000  Level Kansas City Center
Thu 03:08:12 PM 39.6219 -91.1669 38° Northeast 473 544 33,000  Level Kansas City Center
Thu 03:09:13 PM 39.7264 -91.0619 38° Northeast 474 545 33,000  Level Kansas City Center
Thu 03:10:14 PM 39.8314 -90.9575 37° Northeast 474 545 33,000  Level Kansas City Center
Thu 03:11:18 PM 39.9350 -90.8528 38° Northeast 472 543 33,000  Level Kansas City Center
Thu 03:12:19 PM 40.0608 -90.7250 38° Northeast 475 547 33,000  Level Kansas City Center
Thu 03:13:22 PM 40.1653 -90.6186 38° Northeast 475 547 33,000  Level Kansas City Center
Thu 03:14:23 PM 40.2703 -90.5125 38° Northeast 476 548 33,000  Level Kansas City Center
Thu 03:15:27 PM 40.3747 -90.4044 38° Northeast 478 550 33,000  Level Kansas City Center
Thu 03:16:29 PM 40.4811 -90.2967 38° Northeast 480 552 33,000  Level Kansas City Center
Thu 03:17:29 PM 40.5944 -90.1803 38° Northeast 467 537 33,000 -290 Level Kansas City Center
Thu 03:18:33 PM 40.6919 -90.0797 38° Northeast 454 522 32,400 -1,008 Descending Kansas City Center
Thu 03:19:34 PM 40.7894 -89.9811 37° Northeast 448 516 30,900 -1,746 Descending Kansas City Center
Thu 03:20:47 PM 40.9083 -89.8556 39° Northeast 425 489 28,500 -2,222 Descending Chicago Center
Thu 03:21:49 PM 41.0092 -89.7478 39° Northeast 425 489 25,900 -2,081 Descending Chicago Center
Thu 03:22:51 PM 41.1019 -89.6500 38° Northeast 425 489 24,200 -919 Descending Chicago Center
Thu 03:23:53 PM 41.1825 -89.5353 47° Northeast 425 489 24,000 -960 Descending Chicago Center
Thu 03:24:56 PM 41.2403 -89.3889 62° Northeast 446 513 22,200 -2,016 Descending Chicago Center
Thu 03:25:58 PM 41.2969 -89.2425 63° Northeast 447 514 19,800 -2,371 Descending Chicago Center
Thu 03:27:00 PM 41.3272 -89.0822 76° East 422 486 17,300 -2,371 Descending Chicago Center
Thu 03:28:02 PM 41.3525 -88.9364 77° East 410 472 14,900 -2,468 Descending Chicago Center
Thu 03:29:04 PM 41.4297 -88.7933 54° Northeast 399 459 12,200 -1,887 Descending Chicago Center
Thu 03:30:06 PM 41.4922 -88.6836 53° Northeast 379 436 11,000 -532 Descending Chicago Center
Thu 03:31:08 PM 41.5528 -88.5739 54° Northeast 370 426 11,100  Climbing Chicago Center
Thu 03:32:10 PM 41.6144 -88.4625 53° Northeast 373 429 11,000 -48 Descending Chicago Center
Thu 03:33:12 PM 41.6761 -88.3525 53° Northeast 371 427 11,000  Level Chicago Center
Thu 03:34:14 PM 41.7389 -88.2425 53° Northeast 372 428 11,000 -528 Level Chicago Center
Thu 03:35:17 PM 41.8083 -88.1239 52° Northeast 335 386 9,900 -1,008 Descending Chicago Center
Thu 03:36:19 PM 41.8558 -88.0375 54° Northeast 292 336 8,900 -927 Descending Chicago Center
Thu 03:37:07 PM 41.8833 -87.9667 62° Northeast 300 345 8,200 -889 Descending Chicago TRACON
Thu 03:38:07 PM 41.8833 -87.8500 90° East 262 302 7,300 -850 Descending Chicago TRACON
Thu 03:39:07 PM 41.8833 -87.7667 90° East 214 246 6,500 -950 Descending Chicago TRACON
Thu 03:40:07 PM 41.8833 -87.7000 90° East 212 244 5,400 -1,100 Descending Chicago TRACON
Thu 03:41:07 PM 41.9000 -87.6333 71° East 226 260 4,300 -947 Descending Chicago TRACON
Thu 03:42:01 PM 41.9500 -87.6667 334° Northwest 192 221 3,600 -714 Descending Chicago TRACON
Thu 03:42:31 PM 41.9589 -87.6922 295° West 205 236 3,300 -652 Descending Chicago Center
Thu 03:43:33 PM 41.9686 -87.7581 281° West 189 217 2,600 -677 Descending Chicago Center

Login

Don't have an account? Register now (free) for customized features, flight alerts, and more!